sensor_id;sensor_type;location;lat;lon;timestamp;P1;durP1;ratioP1;P2;durP2;ratioP2
1410;SDS011;700;51.906;8.404;2022-07-04T00:02:50;2.93;;;2.70;;
1410;SDS011;700;51.906;8.404;2022-07-04T00:07:56;3.23;;;2.97;;
1410;SDS011;700;51.906;8.404;2022-07-04T00:12:57;3.10;;;2.80;;
1410;SDS011;700;51.906;8.404;2022-07-04T00:17:58;3.60;;;3.30;;
1410;SDS011;700;51.906;8.404;2022-07-04T00:22:58;3.70;;;2.87;;
1410;SDS011;700;51.906;8.404;2022-07-04T00:28:01;4.00;;;3.27;;
1410;SDS011;700;51.906;8.404;2022-07-04T00:33:02;3.60;;;2.93;;
1410;SDS011;700;51.906;8.404;2022-07-04T00:38:06;3.70;;;2.90;;
1410;SDS011;700;51.906;8.404;2022-07-04T00:43:09;6.83;;;3.10;;
1410;SDS011;700;51.906;8.404;2022-07-04T00:48:09;3.20;;;3.00;;
1410;SDS011;700;51.906;8.404;2022-07-04T00:53:13;3.27;;;2.97;;
1410;SDS011;700;51.906;8.404;2022-07-04T00:58:14;4.30;;;3.90;;
1410;SDS011;700;51.906;8.404;2022-07-04T01:03:18;4.33;;;3.93;;
1410;SDS011;700;51.906;8.404;2022-07-04T01:08:19;3.60;;;3.30;;
1410;SDS011;700;51.906;8.404;2022-07-04T01:13:21;4.30;;;3.40;;
1410;SDS011;700;51.906;8.404;2022-07-04T01:18:25;5.67;;;4.70;;
1410;SDS011;700;51.906;8.404;2022-07-04T01:23:25;7.70;;;4.20;;
1410;SDS011;700;51.906;8.404;2022-07-04T01:28:26;3.77;;;3.43;;
1410;SDS011;700;51.906;8.404;2022-07-04T01:33:29;4.30;;;3.90;;
1410;SDS011;700;51.906;8.404;2022-07-04T01:38:30;3.80;;;3.50;;
1410;SDS011;700;51.906;8.404;2022-07-04T01:43:34;4.07;;;3.70;;
1410;SDS011;700;51.906;8.404;2022-07-04T01:48:35;5.57;;;3.47;;
1410;SDS011;700;51.906;8.404;2022-07-04T01:53:36;5.20;;;4.40;;
1410;SDS011;700;51.906;8.404;2022-07-04T01:58:39;5.40;;;4.90;;
1410;SDS011;700;51.906;8.404;2022-07-04T02:03:39;6.00;;;4.33;;
1410;SDS011;700;51.906;8.404;2022-07-04T02:08:42;5.33;;;4.83;;
1410;SDS011;700;51.906;8.404;2022-07-04T02:14:03;5.33;;;4.77;;
1410;SDS011;700;51.906;8.404;2022-07-04T02:19:04;5.30;;;4.90;;
1410;SDS011;700;51.906;8.404;2022-07-04T02:24:05;9.60;;;5.37;;
1410;SDS011;700;51.906;8.404;2022-07-04T02:29:10;6.47;;;5.87;;
1410;SDS011;700;51.906;8.404;2022-07-04T02:34:12;5.83;;;5.00;;
1410;SDS011;700;51.906;8.404;2022-07-04T02:39:13;5.00;;;4.50;;
1410;SDS011;700;51.906;8.404;2022-07-04T02:44:16;6.03;;;5.40;;
1410;SDS011;700;51.906;8.404;2022-07-04T02:49:17;4.90;;;4.50;;
1410;SDS011;700;51.906;8.404;2022-07-04T02:54:18;5.63;;;5.13;;
1410;SDS011;700;51.906;8.404;2022-07-04T02:59:18;6.53;;;5.93;;
1410;SDS011;700;51.906;8.404;2022-07-04T03:04:19;5.67;;;5.17;;
1410;SDS011;700;51.906;8.404;2022-07-04T03:09:20;6.40;;;5.90;;
1410;SDS011;700;51.906;8.404;2022-07-04T03:14:23;6.70;;;6.10;;
1410;SDS011;700;51.906;8.404;2022-07-04T03:19:26;7.53;;;6.70;;
1410;SDS011;700;51.906;8.404;2022-07-04T03:24:26;7.70;;;6.90;;
1410;SDS011;700;51.906;8.404;2022-07-04T03:29:27;8.20;;;7.40;;
1410;SDS011;700;51.906;8.404;2022-07-04T03:34:30;7.30;;;5.70;;
1410;SDS011;700;51.906;8.404;2022-07-04T03:39:31;7.03;;;6.40;;
1410;SDS011;700;51.906;8.404;2022-07-04T03:44:32;7.60;;;6.90;;
1410;SDS011;700;51.906;8.404;2022-07-04T03:49:32;7.53;;;6.93;;
1410;SDS011;700;51.906;8.404;2022-07-04T03:54:33;7.57;;;6.57;;
1410;SDS011;700;51.906;8.404;2022-07-04T03:59:36;7.80;;;7.20;;
1410;SDS011;700;51.906;8.404;2022-07-04T04:04:39;8.10;;;7.40;;
1410;SDS011;700;51.906;8.404;2022-07-04T04:10:00;10.17;;;7.57;;
1410;SDS011;700;51.906;8.404;2022-07-04T04:15:03;8.50;;;7.70;;
1410;SDS011;700;51.906;8.404;2022-07-04T04:20:07;8.47;;;7.30;;
1410;SDS011;700;51.906;8.404;2022-07-04T04:25:11;8.67;;;7.80;;
1410;SDS011;700;51.906;8.404;2022-07-04T04:30:12;8.33;;;7.43;;
1410;SDS011;700;51.906;8.404;2022-07-04T04:35:13;8.07;;;7.37;;
1410;SDS011;700;51.906;8.404;2022-07-04T04:40:14;8.93;;;8.00;;
1410;SDS011;700;51.906;8.404;2022-07-04T04:45:17;10.00;;;8.90;;
1410;SDS011;700;51.906;8.404;2022-07-04T04:50:20;12.40;;;11.10;;
1410;SDS011;700;51.906;8.404;2022-07-04T04:55:26;9.30;;;8.50;;
1410;SDS011;700;51.906;8.404;2022-07-04T05:00:26;11.27;;;10.07;;
1410;SDS011;700;51.906;8.404;2022-07-04T05:05:27;8.93;;;8.13;;
1410;SDS011;700;51.906;8.404;2022-07-04T05:10:30;10.10;;;9.00;;
1410;SDS011;700;51.906;8.404;2022-07-04T05:15:33;11.40;;;10.20;;
1410;SDS011;700;51.906;8.404;2022-07-04T05:20:36;10.13;;;8.83;;
1410;SDS011;700;51.906;8.404;2022-07-04T05:25:37;16.80;;;10.20;;
1410;SDS011;700;51.906;8.404;2022-07-04T05:30:37;10.40;;;9.33;;
1410;SDS011;700;51.906;8.404;2022-07-04T05:35:40;10.47;;;9.17;;
1410;SDS011;700;51.906;8.404;2022-07-04T05:40:41;10.77;;;9.67;;
1410;SDS011;700;51.906;8.404;2022-07-04T05:45:42;11.23;;;10.10;;
1410;SDS011;700;51.906;8.404;2022-07-04T05:50:47;12.27;;;9.70;;
1410;SDS011;700;51.906;8.404;2022-07-04T05:55:48;10.63;;;8.60;;
1410;SDS011;700;51.906;8.404;2022-07-04T06:00:48;13.93;;;10.10;;
1410;SDS011;700;51.906;8.404;2022-07-04T06:05:51;14.70;;;10.37;;
1410;SDS011;700;51.906;8.404;2022-07-04T06:10:53;10.40;;;9.03;;
1410;SDS011;700;51.906;8.404;2022-07-04T06:15:53;9.87;;;8.97;;
1410;SDS011;700;51.906;8.404;2022-07-04T06:20:55;9.40;;;8.50;;
1410;SDS011;700;51.906;8.404;2022-07-04T06:25:55;8.90;;;8.00;;
1410;SDS011;700;51.906;8.404;2022-07-04T06:30:56;8.60;;;7.80;;
1410;SDS011;700;51.906;8.404;2022-07-04T06:35:59;6.47;;;5.80;;
1410;SDS011;700;51.906;8.404;2022-07-04T06:41:02;8.67;;;7.03;;
1410;SDS011;700;51.906;8.404;2022-07-04T06:46:05;11.93;;;6.90;;
1410;SDS011;700;51.906;8.404;2022-07-04T06:51:06;8.60;;;6.30;;
1410;SDS011;700;51.906;8.404;2022-07-04T06:56:07;5.20;;;4.80;;
1410;SDS011;700;51.906;8.404;2022-07-04T07:01:08;7.47;;;5.10;;
1410;SDS011;700;51.906;8.404;2022-07-04T07:06:08;8.00;;;4.80;;
1410;SDS011;700;51.906;8.404;2022-07-04T07:11:09;6.03;;;4.27;;
1410;SDS011;700;51.906;8.404;2022-07-04T07:16:18;8.60;;;4.13;;
1410;SDS011;700;51.906;8.404;2022-07-04T07:21:23;5.20;;;3.60;;
1410;SDS011;700;51.906;8.404;2022-07-04T07:26:24;9.67;;;3.73;;
1410;SDS011;700;51.906;8.404;2022-07-04T07:31:24;5.27;;;3.87;;
1410;SDS011;700;51.906;8.404;2022-07-04T07:36:25;3.73;;;3.27;;
1410;SDS011;700;51.906;8.404;2022-07-04T07:41:28;4.87;;;3.10;;
1410;SDS011;700;51.906;8.404;2022-07-04T07:46:31;7.17;;;5.43;;
1410;SDS011;700;51.906;8.404;2022-07-04T07:51:32;7.20;;;2.70;;
1410;SDS011;700;51.906;8.404;2022-07-04T07:56:35;6.07;;;2.90;;
1410;SDS011;700;51.906;8.404;2022-07-04T08:01:36;4.90;;;1.90;;
1410;SDS011;700;51.906;8.404;2022-07-04T08:06:39;1.93;;;1.70;;
1410;SDS011;700;51.906;8.404;2022-07-04T08:11:44;2.30;;;1.70;;
1410;SDS011;700;51.906;8.404;2022-07-04T08:16:47;1.77;;;1.40;;
1410;SDS011;700;51.906;8.404;2022-07-04T08:21:48;6.00;;;2.10;;
1410;SDS011;700;51.906;8.404;2022-07-04T08:26:48;2.67;;;1.30;;
1410;SDS011;700;51.906;8.404;2022-07-04T08:31:51;2.67;;;1.93;;
1410;SDS011;700;51.906;8.404;2022-07-04T08:36:52;5.73;;;3.00;;
1410;SDS011;700;51.906;8.404;2022-07-04T08:41:55;4.33;;;1.80;;
1410;SDS011;700;51.906;8.404;2022-07-04T08:46:59;2.73;;;1.57;;
1410;SDS011;700;51.906;8.404;2022-07-04T08:52:03;2.00;;;1.47;;
1410;SDS011;700;51.906;8.404;2022-07-04T08:57:06;3.43;;;1.53;;
1410;SDS011;700;51.906;8.404;2022-07-04T09:02:27;6.50;;;2.30;;
1410;SDS011;700;51.906;8.404;2022-07-04T09:07:28;1.90;;;1.10;;
1410;SDS011;700;51.906;8.404;2022-07-04T09:12:29;5.13;;;1.63;;
1410;SDS011;700;51.906;8.404;2022-07-04T09:17:32;3.43;;;1.53;;
1410;SDS011;700;51.906;8.404;2022-07-04T09:22:33;1.97;;;1.13;;
1410;SDS011;700;51.906;8.404;2022-07-04T09:32:36;1.23;;;0.90;;
1410;SDS011;700;51.906;8.404;2022-07-04T09:37:39;2.10;;;1.00;;
1410;SDS011;700;51.906;8.404;2022-07-04T09:42:49;3.17;;;1.20;;
1410;SDS011;700;51.906;8.404;2022-07-04T09:47:50;2.13;;;1.10;;
1410;SDS011;700;51.906;8.404;2022-07-04T09:52:56;2.03;;;1.10;;
1410;SDS011;700;51.906;8.404;2022-07-04T09:58:02;2.07;;;0.80;;
1410;SDS011;700;51.906;8.404;2022-07-04T10:03:18;3.43;;;0.80;;
1410;SDS011;700;51.906;8.404;2022-07-04T10:08:23;2.03;;;1.10;;
1410;SDS011;700;51.906;8.404;2022-07-04T10:13:24;2.60;;;1.60;;
1410;SDS011;700;51.906;8.404;2022-07-04T10:18:27;2.70;;;1.00;;
1410;SDS011;700;51.906;8.404;2022-07-04T10:23:28;1.20;;;0.70;;
1410;SDS011;700;51.906;8.404;2022-07-04T10:28:32;1.50;;;0.90;;
1410;SDS011;700;51.906;8.404;2022-07-04T10:33:33;1.97;;;1.03;;
1410;SDS011;700;51.906;8.404;2022-07-04T10:38:49;1.93;;;1.00;;
1410;SDS011;700;51.906;8.404;2022-07-04T10:49:06;1.70;;;0.77;;
1410;SDS011;700;51.906;8.404;2022-07-04T11:20:33;2.60;;;1.00;;
1410;SDS011;700;51.906;8.404;2022-07-04T11:25:37;2.27;;;1.00;;
1410;SDS011;700;51.906;8.404;2022-07-04T11:30:47;2.83;;;1.20;;
1410;SDS011;700;51.906;8.404;2022-07-04T11:41:06;2.03;;;0.90;;
1410;SDS011;700;51.906;8.404;2022-07-04T11:46:25;1.40;;;0.87;;
1410;SDS011;700;51.906;8.404;2022-07-04T11:51:25;1.57;;;0.90;;
1410;SDS011;700;51.906;8.404;2022-07-04T11:56:27;1.50;;;0.90;;
1410;SDS011;700;51.906;8.404;2022-07-04T12:01:28;1.50;;;0.93;;
1410;SDS011;700;51.906;8.404;2022-07-04T12:06:29;1.73;;;0.90;;
1410;SDS011;700;51.906;8.404;2022-07-04T12:11:51;1.47;;;1.10;;
1410;SDS011;700;51.906;8.404;2022-07-04T12:17:11;2.13;;;1.00;;
1410;SDS011;700;51.906;8.404;2022-07-04T12:22:13;1.83;;;0.90;;
1410;SDS011;700;51.906;8.404;2022-07-04T12:27:17;3.53;;;1.07;;
1410;SDS011;700;51.906;8.404;2022-07-04T12:32:19;1.97;;;0.90;;
1410;SDS011;700;51.906;8.404;2022-07-04T12:37:20;1.73;;;1.10;;
1410;SDS011;700;51.906;8.404;2022-07-04T12:42:21;1.97;;;0.80;;
1410;SDS011;700;51.906;8.404;2022-07-04T12:47:22;1.17;;;0.70;;
1410;SDS011;700;51.906;8.404;2022-07-04T12:52:26;2.47;;;1.00;;
1410;SDS011;700;51.906;8.404;2022-07-04T12:57:27;1.73;;;0.90;;
1410;SDS011;700;51.906;8.404;2022-07-04T13:02:28;1.53;;;0.80;;
1410;SDS011;700;51.906;8.404;2022-07-04T13:07:29;1.33;;;0.87;;
1410;SDS011;700;51.906;8.404;2022-07-04T13:12:32;3.20;;;0.90;;
1410;SDS011;700;51.906;8.404;2022-07-04T13:17:34;1.57;;;0.90;;
1410;SDS011;700;51.906;8.404;2022-07-04T13:22:35;1.43;;;0.90;;
1410;SDS011;700;51.906;8.404;2022-07-04T13:27:36;2.63;;;1.00;;
1410;SDS011;700;51.906;8.404;2022-07-04T13:32:39;2.10;;;1.17;;
1410;SDS011;700;51.906;8.404;2022-07-04T13:37:40;2.73;;;0.80;;
1410;SDS011;700;51.906;8.404;2022-07-04T13:42:42;2.40;;;1.07;;
1410;SDS011;700;51.906;8.404;2022-07-04T13:47:58;2.87;;;1.00;;
1410;SDS011;700;51.906;8.404;2022-07-04T13:53:00;2.13;;;0.80;;
1410;SDS011;700;51.906;8.404;2022-07-04T13:58:02;1.87;;;0.87;;
1410;SDS011;700;51.906;8.404;2022-07-04T14:03:03;4.00;;;1.10;;
1410;SDS011;700;51.906;8.404;2022-07-04T14:08:04;2.70;;;1.00;;
1410;SDS011;700;51.906;8.404;2022-07-04T14:13:05;2.40;;;1.30;;
1410;SDS011;700;51.906;8.404;2022-07-04T14:18:06;1.73;;;0.83;;
1410;SDS011;700;51.906;8.404;2022-07-04T14:23:13;3.20;;;1.20;;
1410;SDS011;700;51.906;8.404;2022-07-04T14:28:14;2.30;;;1.23;;
1410;SDS011;700;51.906;8.404;2022-07-04T14:33:14;2.97;;;1.10;;
1410;SDS011;700;51.906;8.404;2022-07-04T14:38:15;1.77;;;0.80;;
1410;SDS011;700;51.906;8.404;2022-07-04T14:43:16;3.87;;;1.27;;
1410;SDS011;700;51.906;8.404;2022-07-04T14:48:20;2.13;;;1.00;;
1410;SDS011;700;51.906;8.404;2022-07-04T14:53:20;5.00;;;1.10;;
1410;SDS011;700;51.906;8.404;2022-07-04T14:58:24;2.67;;;1.30;;
1410;SDS011;700;51.906;8.404;2022-07-04T15:03:27;1.93;;;1.40;;
1410;SDS011;700;51.906;8.404;2022-07-04T15:08:28;3.53;;;1.17;;
1410;SDS011;700;51.906;8.404;2022-07-04T15:13:29;2.10;;;1.10;;
1410;SDS011;700;51.906;8.404;2022-07-04T15:18:30;2.13;;;1.13;;
1410;SDS011;700;51.906;8.404;2022-07-04T15:23:33;2.33;;;0.97;;
1410;SDS011;700;51.906;8.404;2022-07-04T15:28:54;2.80;;;1.00;;
1410;SDS011;700;51.906;8.404;2022-07-04T15:33:57;5.67;;;3.57;;
1410;SDS011;700;51.906;8.404;2022-07-04T15:39:00;3.83;;;1.20;;
1410;SDS011;700;51.906;8.404;2022-07-04T15:44:09;1.90;;;0.97;;
1410;SDS011;700;51.906;8.404;2022-07-04T15:49:12;1.90;;;1.20;;
1410;SDS011;700;51.906;8.404;2022-07-04T15:54:13;1.63;;;1.00;;
1410;SDS011;700;51.906;8.404;2022-07-04T15:59:14;2.13;;;1.20;;
1410;SDS011;700;51.906;8.404;2022-07-04T16:04:14;4.90;;;1.47;;
1410;SDS011;700;51.906;8.404;2022-07-04T16:09:15;3.40;;;1.20;;
1410;SDS011;700;51.906;8.404;2022-07-04T16:14:19;3.00;;;1.20;;
1410;SDS011;700;51.906;8.404;2022-07-04T16:19:23;2.70;;;1.10;;
1410;SDS011;700;51.906;8.404;2022-07-04T16:24:24;1.93;;;1.37;;
1410;SDS011;700;51.906;8.404;2022-07-04T16:29:27;2.23;;;1.20;;
1410;SDS011;700;51.906;8.404;2022-07-04T16:34:27;3.10;;;1.20;;
1410;SDS011;700;51.906;8.404;2022-07-04T16:39:28;2.47;;;1.30;;
1410;SDS011;700;51.906;8.404;2022-07-04T16:44:29;5.03;;;3.40;;
1410;SDS011;700;51.906;8.404;2022-07-04T16:49:29;2.87;;;1.53;;
1410;SDS011;700;51.906;8.404;2022-07-04T16:54:32;3.50;;;1.30;;
1410;SDS011;700;51.906;8.404;2022-07-04T16:59:33;3.23;;;1.57;;
1410;SDS011;700;51.906;8.404;2022-07-04T17:04:34;2.40;;;1.33;;
1410;SDS011;700;51.906;8.404;2022-07-04T17:09:34;3.60;;;1.47;;
1410;SDS011;700;51.906;8.404;2022-07-04T17:14:37;1.83;;;1.63;;
1410;SDS011;700;51.906;8.404;2022-07-04T17:19:38;3.03;;;1.60;;
1410;SDS011;700;51.906;8.404;2022-07-04T17:24:39;1.80;;;1.40;;
1410;SDS011;700;51.906;8.404;2022-07-04T17:29:40;6.30;;;5.07;;
1410;SDS011;700;51.906;8.404;2022-07-04T17:34:43;2.53;;;1.20;;
1410;SDS011;700;51.906;8.404;2022-07-04T17:39:44;3.17;;;1.40;;
1410;SDS011;700;51.906;8.404;2022-07-04T17:44:45;2.88;;;1.70;;
1410;SDS011;700;51.906;8.404;2022-07-04T17:49:45;2.13;;;1.20;;
1410;SDS011;700;51.906;8.404;2022-07-04T17:54:46;4.07;;;1.40;;
1410;SDS011;700;51.906;8.404;2022-07-04T17:59:49;6.50;;;5.27;;
1410;SDS011;700;51.906;8.404;2022-07-04T18:04:50;3.40;;;1.60;;
1410;SDS011;700;51.906;8.404;2022-07-04T18:09:55;2.40;;;1.60;;
1410;SDS011;700;51.906;8.404;2022-07-04T18:14:56;2.90;;;1.80;;
1410;SDS011;700;51.906;8.404;2022-07-04T18:19:57;3.93;;;1.57;;
1410;SDS011;700;51.906;8.404;2022-07-04T18:24:58;4.30;;;1.97;;
1410;SDS011;700;51.906;8.404;2022-07-04T18:29:58;3.33;;;2.00;;
1410;SDS011;700;51.906;8.404;2022-07-04T18:35:01;3.40;;;2.00;;
1410;SDS011;700;51.906;8.404;2022-07-04T18:40:04;3.43;;;1.70;;
1410;SDS011;700;51.906;8.404;2022-07-04T18:45:25;4.00;;;2.40;;
1410;SDS011;700;51.906;8.404;2022-07-04T18:50:28;2.50;;;2.03;;
1410;SDS011;700;51.906;8.404;2022-07-04T18:55:28;3.90;;;1.73;;
1410;SDS011;700;51.906;8.404;2022-07-04T19:00:29;3.20;;;2.17;;
1410;SDS011;700;51.906;8.404;2022-07-04T19:05:30;2.27;;;1.77;;
1410;SDS011;700;51.906;8.404;2022-07-04T19:10:34;4.17;;;2.40;;
1410;SDS011;700;51.906;8.404;2022-07-04T19:15:35;3.30;;;2.07;;
1410;SDS011;700;51.906;8.404;2022-07-04T19:20:37;5.10;;;2.93;;
1410;SDS011;700;51.906;8.404;2022-07-04T19:25:38;3.17;;;2.07;;
1410;SDS011;700;51.906;8.404;2022-07-04T19:30:40;2.87;;;1.93;;
1410;SDS011;700;51.906;8.404;2022-07-04T19:35:40;4.60;;;2.43;;
1410;SDS011;700;51.906;8.404;2022-07-04T19:40:41;3.33;;;2.10;;
1410;SDS011;700;51.906;8.404;2022-07-04T19:45:46;4.10;;;2.63;;
1410;SDS011;700;51.906;8.404;2022-07-04T19:50:49;7.13;;;2.30;;
1410;SDS011;700;51.906;8.404;2022-07-04T19:55:50;4.70;;;2.40;;
1410;SDS011;700;51.906;8.404;2022-07-04T20:00:51;3.90;;;2.50;;
1410;SDS011;700;51.906;8.404;2022-07-04T20:05:51;5.17;;;2.20;;
1410;SDS011;700;51.906;8.404;2022-07-04T20:10:52;3.13;;;2.50;;
1410;SDS011;700;51.906;8.404;2022-07-04T20:15:56;2.73;;;2.20;;
1410;SDS011;700;51.906;8.404;2022-07-04T20:20:56;3.70;;;2.43;;
1410;SDS011;700;51.906;8.404;2022-07-04T20:25:57;3.00;;;2.53;;
1410;SDS011;700;51.906;8.404;2022-07-04T20:30:58;4.23;;;2.30;;
1410;SDS011;700;51.906;8.404;2022-07-04T20:35:58;4.50;;;2.67;;
1410;SDS011;700;51.906;8.404;2022-07-04T20:41:00;3.67;;;2.10;;
1410;SDS011;700;51.906;8.404;2022-07-04T20:46:03;3.80;;;2.23;;
1410;SDS011;700;51.906;8.404;2022-07-04T20:51:03;4.80;;;2.53;;
1410;SDS011;700;51.906;8.404;2022-07-04T20:56:04;4.17;;;1.97;;
1410;SDS011;700;51.906;8.404;2022-07-04T21:01:05;3.37;;;2.00;;
1410;SDS011;700;51.906;8.404;2022-07-04T21:06:06;2.87;;;1.60;;
1410;SDS011;700;51.906;8.404;2022-07-04T21:11:09;5.83;;;2.00;;
1410;SDS011;700;51.906;8.404;2022-07-04T21:16:10;3.70;;;2.40;;
1410;SDS011;700;51.906;8.404;2022-07-04T21:21:11;2.70;;;2.00;;
1410;SDS011;700;51.906;8.404;2022-07-04T21:26:11;5.03;;;2.17;;
1410;SDS011;700;51.906;8.404;2022-07-04T21:31:12;5.07;;;1.83;;
1410;SDS011;700;51.906;8.404;2022-07-04T21:36:14;3.80;;;2.03;;
1410;SDS011;700;51.906;8.404;2022-07-04T21:41:15;6.07;;;2.30;;
1410;SDS011;700;51.906;8.404;2022-07-04T21:46:16;4.90;;;2.40;;
1410;SDS011;700;51.906;8.404;2022-07-04T21:51:17;3.57;;;2.20;;
1410;SDS011;700;51.906;8.404;2022-07-04T21:56:18;5.50;;;1.87;;
1410;SDS011;700;51.906;8.404;2022-07-04T22:01:19;3.10;;;2.00;;
1410;SDS011;700;51.906;8.404;2022-07-04T22:06:19;3.20;;;1.67;;
1410;SDS011;700;51.906;8.404;2022-07-04T22:11:20;2.00;;;1.50;;
1410;SDS011;700;51.906;8.404;2022-07-04T22:16:21;2.20;;;1.70;;
1410;SDS011;700;51.906;8.404;2022-07-04T22:21:23;3.30;;;2.37;;
1410;SDS011;700;51.906;8.404;2022-07-04T22:26:26;3.33;;;1.80;;
1410;SDS011;700;51.906;8.404;2022-07-04T22:37:24;3.90;;;1.70;;
1410;SDS011;700;51.906;8.404;2022-07-04T22:42:25;1.97;;;1.60;;
1410;SDS011;700;51.906;8.404;2022-07-04T22:47:25;2.47;;;2.27;;
1410;SDS011;700;51.906;8.404;2022-07-04T22:52:28;3.47;;;2.20;;
1410;SDS011;700;51.906;8.404;2022-07-04T22:57:30;3.30;;;2.20;;
1410;SDS011;700;51.906;8.404;2022-07-04T23:02:31;3.17;;;1.73;;
1410;SDS011;700;51.906;8.404;2022-07-04T23:07:32;2.83;;;1.70;;
1410;SDS011;700;51.906;8.404;2022-07-04T23:12:33;2.77;;;1.77;;
1410;SDS011;700;51.906;8.404;2022-07-04T23:17:36;2.40;;;1.63;;
1410;SDS011;700;51.906;8.404;2022-07-04T23:22:37;2.67;;;1.83;;
1410;SDS011;700;51.906;8.404;2022-07-04T23:27:39;2.40;;;1.80;;
1410;SDS011;700;51.906;8.404;2022-07-04T23:32:42;2.23;;;1.73;;
1410;SDS011;700;51.906;8.404;2022-07-04T23:37:46;3.20;;;1.97;;
1410;SDS011;700;51.906;8.404;2022-07-04T23:42:49;4.73;;;2.20;;
1410;SDS011;700;51.906;8.404;2022-07-04T23:47:49;2.67;;;2.00;;
1410;SDS011;700;51.906;8.404;2022-07-04T23:52:50;2.10;;;1.80;;
1410;SDS011;700;51.906;8.404;2022-07-04T23:57:51;2.97;;;2.00;;
